createdAt,value
2019-05-05T00:04:04.456Z,96691.98
2019-05-05T00:09:09.012Z,96685.70
2019-05-05T00:14:15.226Z,96682.14
2019-05-05T00:19:29.790Z,96689.02
2019-05-05T00:24:24.416Z,96685.48
2019-05-05T00:29:28.083Z,96686.98
2019-05-05T00:34:31.534Z,96681.22
2019-05-05T00:39:34.920Z,96695.86
2019-05-05T00:44:38.326Z,96707.96
2019-05-05T00:49:48.604Z,96715.75
2019-05-05T00:54:48.449Z,96713.73
2019-05-05T00:59:54.228Z,96715.34
2019-05-05T01:05:07.788Z,96729.97
2019-05-05T01:10:11.477Z,96740.27
2019-05-05T01:15:15.167Z,96740.37
2019-05-05T01:20:18.838Z,96741.38
2019-05-05T01:25:22.456Z,96740.23
2019-05-05T01:30:34.983Z,96734.66
2019-05-05T01:35:38.427Z,96739.56
2019-05-05T01:40:49.424Z,96754.72
2019-05-05T01:45:54.648Z,96765.80
2019-05-05T01:50:58.337Z,96763.48
2019-05-05T01:56:02.161Z,96761.33
2019-05-05T02:01:05.561Z,96777.49
2019-05-05T02:06:08.950Z,96766.27
2019-05-05T02:11:12.342Z,96768.70
2019-05-05T02:16:15.736Z,96772.48
2019-05-05T02:21:19.260Z,96773.53
2019-05-05T02:26:24.526Z,96768.10
2019-05-05T02:31:32.597Z,96766.27
2019-05-05T02:36:36.002Z,96766.89
2019-05-05T02:41:41.128Z,96761.23
2019-05-05T02:46:46.695Z,96757.78
2019-05-05T02:51:50.920Z,96761.95
2019-05-05T02:56:55.045Z,96762.58
2019-05-05T03:02:00.612Z,96756.25
2019-05-05T03:07:04.858Z,96756.63
2019-05-05T03:12:11.117Z,96762.50
2019-05-05T03:17:15.051Z,96758.72
2019-05-05T03:22:19.422Z,96760.36
2019-05-05T03:27:23.801Z,96761.16
2019-05-05T03:32:27.522Z,96762.30
2019-05-05T03:37:30.910Z,96771.70
2019-05-05T03:42:36.205Z,96786.98
2019-05-05T03:47:40.366Z,96784.66
2019-05-05T03:52:44.894Z,96794.78
2019-05-05T03:57:48.555Z,96808.99
2019-05-05T04:02:53.960Z,96815.16
2019-05-05T04:07:57.425Z,96814.67
2019-05-05T04:13:00.887Z,96811.75
2019-05-05T04:18:05.913Z,96823.58
2019-05-05T04:23:09.310Z,96827.31
2019-05-05T04:28:13.588Z,96835.20
2019-05-05T04:33:17.076Z,96828.24
2019-05-05T04:38:20.473Z,96842.85
2019-05-05T04:43:24.648Z,96845.73
2019-05-05T04:48:29.943Z,96849.53
2019-05-05T04:53:37.660Z,96851.00
2019-05-05T04:58:41.048Z,96853.43
2019-05-05T05:03:57.493Z,96864.87
2019-05-05T05:09:00.882Z,96885.42
2019-05-05T05:14:04.340Z,96888.32
2019-05-05T05:19:07.731Z,96904.98
2019-05-05T05:24:11.120Z,96915.34
2019-05-05T05:29:15.200Z,96918.84
2019-05-05T05:34:18.875Z,96917.97
2019-05-05T05:39:24.468Z,96920.45
2019-05-05T05:44:41.058Z,96935.84
2019-05-05T05:49:51.695Z,96942.52
2019-05-05T05:54:55.094Z,96944.11
2019-05-05T05:59:58.485Z,96948.66
2019-05-05T06:05:01.890Z,96948.83
2019-05-05T06:10:06.007Z,96941.92
2019-05-05T06:15:09.638Z,96950.95
2019-05-05T06:20:14.549Z,96957.63
2019-05-05T06:25:17.951Z,96973.99
2019-05-05T06:30:21.346Z,96976.22
2019-05-05T06:35:24.756Z,96979.19
2019-05-05T06:40:29.854Z,96985.22
2019-05-05T06:45:34.895Z,96985.59
2019-05-05T06:50:38.287Z,96998.72
2019-05-05T06:55:41.683Z,96995.86
2019-05-05T07:00:45.078Z,97003.92
2019-05-05T07:05:48.475Z,97006.32
2019-05-05T07:10:51.873Z,97008.94
2019-05-05T07:15:55.269Z,97007.98
2019-05-05T07:20:58.668Z,97015.83
2019-05-05T07:26:03.955Z,97021.95
2019-05-05T07:31:07.222Z,97019.42
2019-05-05T07:36:28.262Z,97029.06
2019-05-05T07:41:33.937Z,97037.78
2019-05-05T07:46:36.821Z,97025.75
2019-05-05T07:51:40.289Z,97034.77
2019-05-05T07:56:44.353Z,97034.14
2019-05-05T08:01:47.951Z,97036.25
2019-05-05T08:06:51.342Z,97039.95
2019-05-05T08:11:54.738Z,97041.98
2019-05-05T08:16:59.773Z,97050.05
2019-05-05T08:22:03.813Z,97058.10
2019-05-05T08:27:11.543Z,97056.84
2019-05-05T08:32:28.729Z,97062.57
2019-05-05T08:37:34.166Z,97052.30
2019-05-05T08:42:37.230Z,97037.56
2019-05-05T08:47:40.615Z,97036.02
2019-05-05T08:52:44.500Z,97041.31
2019-05-05T08:57:47.873Z,97040.61
2019-05-05T09:02:51.269Z,97040.14
2019-05-05T09:07:54.904Z,97041.47
2019-05-05T09:12:58.282Z,97032.82
2019-05-05T09:18:02.105Z,97033.89
2019-05-05T09:23:05.495Z,97034.59
2019-05-05T09:28:10.584Z,97022.50
2019-05-05T09:33:14.657Z,97033.11
2019-05-05T09:38:19.539Z,97030.54
2019-05-05T09:43:23.997Z,97031.98
2019-05-05T09:48:27.900Z,97038.56
2019-05-05T09:53:31.291Z,97045.09
2019-05-05T09:58:34.921Z,97045.27
2019-05-05T10:03:38.307Z,97048.44
2019-05-05T10:08:41.709Z,97050.42
2019-05-05T10:13:45.100Z,97060.74
2019-05-05T10:18:48.724Z,97062.36
2019-05-05T10:23:54.126Z,97059.80
2019-05-05T10:28:57.727Z,97067.65
2019-05-05T10:34:14.772Z,97063.45
2019-05-05T10:39:24.058Z,97054.61
2019-05-05T10:44:27.521Z,97058.13
2019-05-05T10:49:30.914Z,97050.30
2019-05-05T10:54:44.252Z,97049.34
2019-05-05T10:59:39.412Z,97047.83
2019-05-05T11:04:44.242Z,97048.33
2019-05-05T11:09:47.800Z,97050.43
2019-05-05T11:14:51.187Z,97050.75
2019-05-05T11:19:54.576Z,97044.10
2019-05-05T11:25:01.062Z,97044.25
2019-05-05T11:30:11.677Z,97050.03
2019-05-05T11:35:15.135Z,97055.92
2019-05-05T11:40:20.161Z,97053.19
2019-05-05T11:45:24.088Z,97064.95
2019-05-05T11:50:27.448Z,97060.86
2019-05-05T11:55:30.837Z,97061.38
2019-05-05T12:00:34.772Z,97058.75
2019-05-05T12:05:38.187Z,97055.39
2019-05-05T12:10:43.903Z,97060.20
2019-05-05T12:15:49.725Z,97062.47
2019-05-05T12:20:54.389Z,97064.42
2019-05-05T12:26:04.567Z,97071.94
2019-05-05T12:31:14.013Z,97071.73
2019-05-05T12:36:17.130Z,97067.42
2019-05-05T12:41:21.045Z,97056.50
2019-05-05T12:46:33.732Z,97068.23
2019-05-05T12:51:37.417Z,97070.00
2019-05-05T12:56:40.800Z,97066.11
2019-05-05T13:01:44.287Z,97070.88
2019-05-05T13:06:47.718Z,97058.44
2019-05-05T13:11:51.104Z,97056.57
2019-05-05T13:16:56.103Z,97063.94
2019-05-05T13:22:19.453Z,97058.54
2019-05-05T13:27:25.024Z,97057.52
2019-05-05T13:32:28.528Z,97060.52
2019-05-05T13:37:33.791Z,97057.28
2019-05-05T13:42:37.279Z,97063.89
2019-05-05T13:47:40.668Z,97054.83
2019-05-05T13:52:44.262Z,97073.67
2019-05-05T13:57:47.627Z,97074.84
2019-05-05T14:02:51.011Z,97085.69
2019-05-05T14:07:54.396Z,97082.23
2019-05-05T14:12:58.033Z,97081.30
2019-05-05T14:18:03.661Z,97083.75
2019-05-05T14:23:06.597Z,97081.55
2019-05-05T14:28:09.984Z,97088.48
2019-05-05T14:33:15.008Z,97081.77
2019-05-05T14:38:35.955Z,97076.96
2019-05-05T14:43:39.412Z,97072.10
2019-05-05T14:48:44.086Z,97073.08
2019-05-05T14:53:47.509Z,97075.57
2019-05-05T14:58:50.901Z,97071.86
2019-05-05T15:03:54.293Z,97070.26
2019-05-05T15:09:15.522Z,97064.79
2019-05-05T15:14:18.915Z,97071.34
2019-05-05T15:19:23.800Z,97066.41
2019-05-05T15:24:27.527Z,97066.42
2019-05-05T15:29:30.945Z,97063.13
2019-05-05T15:34:34.486Z,97063.93
2019-05-05T15:39:37.878Z,97063.95
2019-05-05T15:44:41.269Z,97057.66
2019-05-05T15:49:44.907Z,97062.30
2019-05-05T15:54:48.299Z,97068.63
2019-05-05T15:59:51.689Z,97074.44
2019-05-05T16:04:55.077Z,97085.77
2019-05-05T16:09:58.464Z,97087.32
2019-05-05T16:15:04.492Z,97087.23
2019-05-05T16:20:09.737Z,97083.75
2019-05-05T16:25:14.274Z,97084.80
2019-05-05T16:30:19.170Z,97081.55
2019-05-05T16:35:23.741Z,97083.45
2019-05-05T16:40:27.410Z,97088.65
2019-05-05T16:45:30.804Z,97090.84
2019-05-05T16:50:36.695Z,97089.64
2019-05-05T16:55:50.112Z,97097.02
2019-05-05T17:00:54.352Z,97088.69
2019-05-05T17:05:58.265Z,97086.22
2019-05-05T17:11:01.630Z,97097.20
2019-05-05T17:16:09.605Z,97084.71
2019-05-05T17:21:29.493Z,97088.28
2019-05-05T17:26:35.497Z,97097.28
2019-05-05T17:31:38.620Z,97098.56
2019-05-05T17:36:42.004Z,97095.83
2019-05-05T17:41:47.033Z,97105.13
2019-05-05T17:46:58.375Z,97115.02
2019-05-05T17:52:09.052Z,97121.78
2019-05-05T17:57:14.197Z,97129.59
2019-05-05T18:02:17.945Z,97129.34
2019-05-05T18:07:28.607Z,97133.89
2019-05-05T18:12:33.799Z,97128.51
2019-05-05T18:17:37.200Z,97134.59
2019-05-05T18:22:40.826Z,97140.53
2019-05-05T18:27:44.213Z,97146.84
2019-05-05T18:32:47.608Z,97149.89
2019-05-05T18:37:51.010Z,97155.56
2019-05-05T18:42:55.465Z,97162.51
2019-05-05T18:47:58.861Z,97169.90
2019-05-05T18:53:02.252Z,97172.83
2019-05-05T18:58:07.518Z,97176.52
2019-05-05T19:03:18.528Z,97185.96
2019-05-05T19:08:21.940Z,97187.58
2019-05-05T19:13:25.329Z,97194.16
2019-05-05T19:18:28.720Z,97203.15
2019-05-05T19:23:33.796Z,97211.98
2019-05-05T19:28:44.398Z,97210.04
2019-05-05T19:33:42.323Z,97211.38
2019-05-05T19:38:45.707Z,97221.54
2019-05-05T19:43:55.254Z,97217.45
2019-05-05T19:49:14.814Z,97219.47
2019-05-05T19:54:18.300Z,97211.35
2019-05-05T19:59:21.688Z,97216.22
2019-05-05T20:04:25.318Z,97230.73
2019-05-05T20:09:28.695Z,97220.75
2019-05-05T20:14:34.068Z,97222.45
2019-05-05T20:19:39.068Z,97223.41
2019-05-05T20:24:44.348Z,97223.45
2019-05-05T20:29:47.565Z,97227.89
2019-05-05T20:35:04.442Z,97216.48
2019-05-05T20:40:09.532Z,97224.41
2019-05-05T20:45:14.964Z,97219.94
2019-05-05T20:50:18.583Z,97223.75
2019-05-05T20:55:30.160Z,97233.33
2019-05-05T21:00:34.771Z,97228.48
2019-05-05T21:05:38.259Z,97226.06
2019-05-05T21:10:44.110Z,97226.34
2019-05-05T21:15:47.005Z,97225.15
2019-05-05T21:20:50.449Z,97231.40
2019-05-05T21:26:07.544Z,97229.48
2019-05-05T21:31:10.932Z,97226.16
2019-05-05T21:36:14.815Z,97226.22
2019-05-05T21:41:19.296Z,97224.52
2019-05-05T21:46:24.019Z,97231.41
2019-05-05T21:51:29.103Z,97229.77
2019-05-05T21:56:36.812Z,97227.80
2019-05-05T22:01:41.222Z,97223.97
2019-05-05T22:06:45.640Z,97225.88
2019-05-05T22:11:49.028Z,97224.41
2019-05-05T22:16:54.343Z,97222.84
2019-05-05T22:22:03.779Z,97225.09
2019-05-05T22:27:09.907Z,97219.89
2019-05-05T22:32:14.044Z,97211.42
2019-05-05T22:37:17.447Z,97214.39
2019-05-05T22:42:20.831Z,97224.46
2019-05-05T22:47:24.216Z,97226.84
2019-05-05T22:52:27.602Z,97224.27
2019-05-05T22:57:30.985Z,97230.36
2019-05-05T23:02:36.015Z,97230.61
2019-05-05T23:07:39.400Z,97224.69
2019-05-05T23:12:43.978Z,97224.95
2019-05-05T23:17:51.653Z,97226.73
2019-05-05T23:22:59.639Z,97222.28
2019-05-05T23:28:04.079Z,97223.31
2019-05-05T23:33:07.488Z,97222.69
2019-05-05T23:38:11.112Z,97219.52
2019-05-05T23:43:14.509Z,97223.58
2019-05-05T23:48:17.892Z,97228.13
2019-05-05T23:53:21.279Z,97221.48
2019-05-05T23:58:24.668Z,97214.24
